Terminal Aerodrome Forecast
Issued by NWS

Home | Current Version | Previous Version | Text Only | Print | Product List | Glossary On
Versions: 1 2 3 4 5 6 7 8 9 10 11 12 13 14
000
FTPA31 PHFO 230359 AAA
TAFHTO
TAF AMD
PHTO 230359Z 2304/2324 34010KT P6SM VCSH SCT025 BKN040
      TEMPO 2304/2307 5SM SHRA BKN025
     FM230700 24005KT P6SM VCSH SCT025 BKN045
     FM232000 36011KT P6SM VCSH SCT025 BKN045=

USA.gov is the U.S. government's official web portal to all federal, state and local government web resources and services.